Meteo Giornale » Osservazioni meteo Stati Uniti (USA) » Laconia

ore: 13:56 - Osservazioni Meteo Laconia
Lat. 43° 34' N Lon. 71° 25' W Alt. 166 metri s.l.m.

coperto

23 °C

Coperto

Temp. 24 Ore

13 °C

26 °C

Nord

9.3 Km/h

Dew point 12 °C

Umidità 49 %

Visibilità  10 Km

Il sole sorge alle ore 06:09

Il sole tramonta alle ore 19:21

Data e Ora Cielo e Fenomeni T °C DP °C Um. % Pres. hPa Vis. km Vento km/h
Oggi h: 13:56 coperto Coperto 23 12 49 1018 10 N 9.3
Oggi h: 12:56 coperto Coperto 21 12 56 1017 10 E/NE 9.3
Oggi h: 11:56 sereno Sereno 20 11 56 1018 14 E 11.1
Oggi h: 10:56 molto_nuvoloso Molto Nuvoloso 19 11 59 1018 10 NE 14.8
Oggi h: 09:56 poco_nuvoloso Poco Nuvoloso 18 13 72 1018 10 E 9.3
Oggi h: 08:56 coperto_pioggia Pioggia 16 14 87 1019 10 N 0
Oggi h: 07:56 coperto Coperto 17 14 82 1019 10 O 7.4
Oggi h: 06:56 coperto Coperto 16 14 87 1018 10 N 0
Oggi h: 05:56 coperto Coperto 15 13 87 1018 10 N 0
Oggi h: 04:56 coperto Coperto 13 13 100 1018 10 N 0
Oggi h: 03:56 sereno Sereno 13 13 100 1018 10 N 0
Oggi h: 02:56 poco_nuvoloso Poco Nuvoloso 13 12 93 1018 10 N 5.5
Oggi h: 01:56 poco_nuvoloso Poco Nuvoloso 14 13 93 1018 10 N 0
Oggi h: 00:56 coperto Coperto 16 13 82 1018 10 N 0
Ieri h: 23:56 sereno Sereno 14 12 87 1018 10 N 0
Ieri h: 22:56 sereno Sereno 15 13 87 1018 10 N 0
Ieri h: 21:56 sereno Sereno 16 13 82 1018 10 N 0
Ieri h: 20:56 sereno Sereno 17 14 82 1018 10 N 0
Ieri h: 19:56 sereno Sereno 19 14 72 1018 10 N 0
Ieri h: 18:56 sereno Sereno 21 14 64 1018 10 N 0
Ieri h: 17:56 sereno Sereno 24 11 43 1018 10 O 11.1
Ieri h: 16:56 sereno Sereno 25 9 36 1018 10 O 9.3
Ieri h: 15:56 poco_nuvoloso Poco Nuvoloso 26 11 39 1018 10 O/NO 9.3
Ieri h: 14:56 sereno Sereno 25 10 38 1019 10 O/NO 9.3